Time;durP1;ratioP1;P1;durP2;ratioP2;P2;SDS_P1;SDS_P2;PMS_P1;PMS_P2;Temp;Humidity;BMP_temperature;BMP_pressure;BME280_temperature;BME280_humidity;BME280_pressure;Samples;Min_cycle;Max_cycle;Signal;HPM_P1;HPM_P2
2022/07/18 00:01:21;;;;;;;10.10;5.55;;;;;;;;;;5107460;28;20044;-72
2022/07/18 00:03:51;;;;;;;6.32;4.03;;;;;;;;;;5106372;28;20052;-70
2022/07/18 00:06:21;;;;;;;4.20;3.40;;;;;;;;;;5107056;28;20052;-70
2022/07/18 00:08:50;;;;;;;;;;;;;;;;;;5107380;28;20047;-69
2022/07/18 00:11:21;;;;;;;3.15;1.80;;;;;;;;;;5111075;27;19919;-71
2022/07/18 00:13:51;;;;;;;3.05;2.13;;;;;;;;;;5126991;27;20406;-70
2022/07/18 00:16:22;;;;;;;7.38;2.75;;;;;;;;;;5126488;27;20035;-70
2022/07/18 00:18:54;;;;;;;5.80;3.42;;;;;;;;;;5127208;27;20043;-71
2022/07/18 00:21:26;;;;;;;7.40;2.70;;;;;;;;;;5124773;27;20663;-70
2022/07/18 00:23:57;;;;;;;6.43;2.75;;;;;;;;;;5126573;27;20548;-71
2022/07/18 00:26:27;;;;;;;4.78;2.90;;;;;;;;;;5126853;27;20047;-70
2022/07/18 00:28:57;;;;;;;4.93;2.88;;;;;;;;;;5127263;27;20418;-69
2022/07/18 00:31:27;;;;;;;7.40;3.33;;;;;;;;;;5126462;27;20042;-70
2022/07/18 00:33:57;;;;;;;4.57;2.90;;;;;;;;;;5125182;28;20055;-71
2022/07/18 00:36:28;;;;;;;3.72;2.20;;;;;;;;;;5126351;28;20046;-70
2022/07/18 00:38:59;;;;;;;3.55;2.17;;;;;;;;;;5126222;27;20047;-70
2022/07/18 00:41:29;;;;;;;5.78;2.88;;;;;;;;;;5126466;28;20398;-70
2022/07/18 00:43:58;;;;;;;3.95;2.60;;;;;;;;;;5125948;27;20047;-70
2022/07/18 00:46:29;;;;;;;3.33;1.95;;;;;;;;;;5129959;27;20536;-70
2022/07/18 00:48:59;;;;;;;2.83;1.83;;;;;;;;;;5129869;27;20517;-70
2022/07/18 00:51:29;;;;;;;;;;;;;;;;;;5131670;27;20047;-70
2022/07/18 00:53:59;;;;;;;5.10;2.00;;;;;;;;;;5130332;27;20301;-70
2022/07/18 00:56:28;;;;;;;3.75;2.35;;;;;;;;;;5130797;27;20434;-72
2022/07/18 00:58:59;;;;;;;3.83;2.65;;;;;;;;;;5130705;27;20054;-70
2022/07/18 01:01:46;;;;;;;3.50;2.20;;;;;;;;;;5130220;27;20039;-69
2022/07/18 01:04:22;;;;;;;4.75;2.70;;;;;;;;;;5130221;27;20047;-72
2022/07/18 01:06:52;;;;;;;8.45;2.83;;;;;;;;;;5130871;27;20035;-72
2022/07/18 01:09:22;;;;;;;4.40;3.03;;;;;;;;;;5131726;27;20047;-69
2022/07/18 01:11:52;;;;;;;8.00;3.05;;;;;;;;;;5131068;27;20047;-72
2022/07/18 01:14:22;;;;;;;4.30;2.70;;;;;;;;;;5131121;27;20074;-72
2022/07/18 01:16:52;;;;;;;5.63;2.53;;;;;;;;;;5131000;27;20070;-72
2022/07/18 01:19:22;;;;;;;3.70;2.40;;;;;;;;;;5130770;27;20047;-72
2022/07/18 01:21:53;;;;;;;6.57;2.20;;;;;;;;;;5130413;27;20487;-70
2022/07/18 01:24:23;;;;;;;6.70;3.33;;;;;;;;;;5130652;27;20498;-70
2022/07/18 01:26:53;;;;;;;5.85;3.03;;;;;;;;;;5130577;27;20103;-70
2022/07/18 01:29:23;;;;;;;3.97;2.40;;;;;;;;;;5130709;27;20050;-70
2022/07/18 01:31:52;;;;;;;3.03;1.80;;;;;;;;;;5131101;27;20505;-70
2022/07/18 01:34:23;;;;;;;2.47;1.70;;;;;;;;;;5129313;27;20506;-70
2022/07/18 01:36:53;;;;;;;3.00;1.70;;;;;;;;;;5130630;27;20055;-70
2022/07/18 01:39:22;;;;;;;3.60;1.73;;;;;;;;;;5130857;27;20387;-71
2022/07/18 01:41:57;;;;;;;3.30;2.42;;;;;;;;;;5130919;27;20051;-70
2022/07/18 01:44:28;;;;;;;3.88;2.15;;;;;;;;;;5130669;27;20490;-73
2022/07/18 01:46:58;;;;;;;3.72;2.08;;;;;;;;;;5129563;27;20043;-73
2022/07/18 01:49:29;;;;;;;2.45;1.90;;;;;;;;;;5130563;27;20063;-70
2022/07/18 01:52:00;;;;;;;3.47;1.92;;;;;;;;;;5130797;27;20050;-70
2022/07/18 01:54:32;;;;;;;3.05;2.00;;;;;;;;;;5130666;27;20058;-70
2022/07/18 01:57:05;;;;;;;2.58;1.88;;;;;;;;;;5130023;27;20042;-69
2022/07/18 01:59:36;;;;;;;4.28;2.28;;;;;;;;;;5130243;27;20039;-70
2022/07/18 02:02:06;;;;;;;4.35;2.53;;;;;;;;;;5130174;27;20501;-70
2022/07/18 02:07:25;;;;;;;5.18;2.83;;;;;;;;;;5129992;27;20050;-72
2022/07/18 02:09:56;;;;;;;3.78;1.88;;;;;;;;;;5130364;27;20043;-72
2022/07/18 02:12:27;;;;;;;5.78;2.55;;;;;;;;;;5130387;27;20054;-71
2022/07/18 02:14:56;;;;;;;;;;;;;;;;;;5130494;27;20047;-69
2022/07/18 02:17:26;;;;;;;14.55;5.72;;;;;;;;;;5130872;27;19923;-69
2022/07/18 02:19:56;;;;;;;25.23;9.02;;;;;;;;;;5130540;27;20054;-69
2022/07/18 02:22:25;;;;;;;14.85;5.63;;;;;;;;;;5130058;27;20050;-71
2022/07/18 02:24:57;;;;;;;6.10;2.60;;;;;;;;;;5128843;27;20082;-70
2022/07/18 02:27:26;;;;;;;5.38;2.30;;;;;;;;;;5130075;27;20043;-70
2022/07/18 02:29:56;;;;;;;7.70;2.83;;;;;;;;;;5129657;27;20047;-70
2022/07/18 02:32:26;;;;;;;8.45;3.63;;;;;;;;;;5130039;27;20422;-70
2022/07/18 02:34:56;;;;;;;4.65;2.40;;;;;;;;;;5129617;27;20417;-69
2022/07/18 02:37:26;;;;;;;4.95;2.83;;;;;;;;;;5129319;27;20763;-70
2022/07/18 02:39:56;;;;;;;2.65;1.85;;;;;;;;;;5130167;27;20055;-70
2022/07/18 02:42:26;;;;;;;3.30;1.80;;;;;;;;;;5129562;27;20047;-70
2022/07/18 02:44:56;;;;;;;3.35;2.05;;;;;;;;;;5128285;27;20059;-72
2022/07/18 02:47:26;;;;;;;7.00;2.85;;;;;;;;;;5129713;27;20062;-72
2022/07/18 02:49:56;;;;;;;6.05;2.63;;;;;;;;;;5129352;27;20532;-72
2022/07/18 02:52:26;;;;;;;4.25;2.85;;;;;;;;;;5129229;27;20046;-70
2022/07/18 02:54:56;;;;;;;3.58;2.00;;;;;;;;;;5128526;27;20051;-71
2022/07/18 02:57:26;;;;;;;2.35;1.60;;;;;;;;;;5129354;27;20419;-71
2022/07/18 02:59:56;;;;;;;2.85;1.60;;;;;;;;;;5129177;27;21018;-71
2022/07/18 03:02:27;;;;;;;2.60;1.40;;;;;;;;;;5127769;27;20066;-71
2022/07/18 03:04:57;;;;;;;1.67;1.27;;;;;;;;;;5129685;27;20051;-72
2022/07/18 03:07:26;;;;;;;4.25;1.42;;;;;;;;;;5129018;27;20055;-71
2022/07/18 03:09:56;;;;;;;3.25;1.85;;;;;;;;;;5128643;27;20520;-71
2022/07/18 03:12:26;;;;;;;2.15;1.55;;;;;;;;;;5129228;27;20051;-70
2022/07/18 03:14:56;;;;;;;3.67;1.70;;;;;;;;;;5128814;27;20217;-71
2022/07/18 03:17:25;;;;;;;;;;;;;;;;;;5129352;27;20043;-72
2022/07/18 03:19:55;;;;;;;1.42;1.02;;;;;;;;;;5128885;27;19920;-71
2022/07/18 03:22:25;;;;;;;2.08;1.17;;;;;;;;;;5129083;27;20054;-71
2022/07/18 03:24:55;;;;;;;2.40;1.40;;;;;;;;;;5128892;27;20405;-71
2022/07/18 03:27:24;;;;;;;2.10;1.40;;;;;;;;;;5128631;27;20043;-71
2022/07/18 03:29:55;;;;;;;2.70;1.40;;;;;;;;;;5127488;27;20043;-71
2022/07/18 03:32:25;;;;;;;2.65;1.55;;;;;;;;;;5128589;27;20047;-71
2022/07/18 03:34:55;;;;;;;2.30;1.30;;;;;;;;;;5128208;27;20756;-71
2022/07/18 03:37:25;;;;;;;2.35;1.42;;;;;;;;;;5128044;27;20043;-71
2022/07/18 03:39:56;;;;;;;2.55;1.50;;;;;;;;;;5127217;27;20506;-71
2022/07/18 03:42:26;;;;;;;2.08;1.40;;;;;;;;;;5128231;27;20559;-71
2022/07/18 03:44:56;;;;;;;2.38;1.50;;;;;;;;;;5128377;27;20062;-71
2022/07/18 03:47:25;;;;;;;1.50;1.13;;;;;;;;;;5128352;27;20039;-71
2022/07/18 03:49:55;;;;;;;2.17;1.20;;;;;;;;;;5128264;27;20040;-71
2022/07/18 03:52:25;;;;;;;5.78;1.90;;;;;;;;;;5127965;27;20058;-70
2022/07/18 03:54:55;;;;;;;3.05;1.67;;;;;;;;;;5127886;27;20512;-71
2022/07/18 03:57:26;;;;;;;2.92;1.63;;;;;;;;;;5128222;27;20494;-71
2022/07/18 03:59:56;;;;;;;4.03;1.77;;;;;;;;;;5128133;27;20047;-70
2022/07/18 04:02:26;;;;;;;2.97;1.73;;;;;;;;;;5110116;27;20055;-71
2022/07/18 04:04:55;;;;;;;1.55;1.15;;;;;;;;;;5126789;27;20078;-71
2022/07/18 04:07:25;;;;;;;3.83;1.70;;;;;;;;;;5128340;27;20058;-71
2022/07/18 04:09:55;;;;;;;3.60;1.40;;;;;;;;;;5128292;27;20417;-71
2022/07/18 04:12:25;;;;;;;5.10;1.42;;;;;;;;;;5127122;27;20413;-71
2022/07/18 04:14:55;;;;;;;1.38;1.10;;;;;;;;;;5127773;27;20053;-71
2022/07/18 04:17:24;;;;;;;2.03;1.08;;;;;;;;;;5127967;27;20498;-71
2022/07/18 04:19:54;;;;;;;2.25;1.45;;;;;;;;;;5127822;27;20051;-71
2022/07/18 04:22:24;;;;;;;1.83;1.40;;;;;;;;;;5127487;27;20050;-71
2022/07/18 04:24:54;;;;;;;;;;;;;;;;;;5128412;27;20525;-71
2022/07/18 04:27:23;;;;;;;2.03;1.30;;;;;;;;;;5127575;27;19930;-72
2022/07/18 04:29:53;;;;;;;1.80;1.30;;;;;;;;;;5127445;27;20055;-71
2022/07/18 04:32:24;;;;;;;3.08;1.55;;;;;;;;;;5127620;27;20047;-71
2022/07/18 04:34:54;;;;;;;4.38;1.80;;;;;;;;;;5126691;27;20054;-71
2022/07/18 04:37:26;;;;;;;2.55;1.55;;;;;;;;;;5127889;28;20043;-71
2022/07/18 04:39:55;;;;;;;2.90;1.48;;;;;;;;;;5128079;28;20044;-71
2022/07/18 04:42:27;;;;;;;2.58;1.70;;;;;;;;;;5127847;28;20480;-71
2022/07/18 04:44:57;;;;;;;3.15;1.65;;;;;;;;;;5127429;28;20048;-71
2022/07/18 04:47:28;;;;;;;2.15;1.60;;;;;;;;;;5125922;28;20086;-71
2022/07/18 04:49:58;;;;;;;2.35;1.73;;;;;;;;;;5127386;28;20521;-71
2022/07/18 04:52:35;;;;;;;3.88;1.55;;;;;;;;;;5127610;28;20062;-71
2022/07/18 04:55:06;;;;;;;2.95;1.50;;;;;;;;;;5127509;28;20047;-72
2022/07/18 04:57:37;;;;;;;2.40;1.40;;;;;;;;;;5127511;28;20047;-71
2022/07/18 05:00:11;;;;;;;1.52;1.13;;;;;;;;;;5127769;28;20058;-71
2022/07/18 05:02:43;;;;;;;3.00;1.60;;;;;;;;;;5127275;28;20046;-71
2022/07/18 05:05:15;;;;;;;3.33;1.80;;;;;;;;;;5127429;28;20043;-71
2022/07/18 05:07:46;;;;;;;3.88;1.60;;;;;;;;;;5127019;28;20528;-70
2022/07/18 05:10:18;;;;;;;2.58;1.67;;;;;;;;;;5126224;27;20055;-71
2022/07/18 05:12:52;;;;;;;4.28;1.75;;;;;;;;;;5127642;28;20051;-71
2022/07/18 05:15:24;;;;;;;2.40;1.40;;;;;;;;;;5127031;28;20051;-71
2022/07/18 05:17:54;;;;;;;2.42;1.50;;;;;;;;;;5126150;28;20046;-72
2022/07/18 05:20:25;;;;;;;5.22;1.67;;;;;;;;;;5127620;28;20070;-70
2022/07/18 05:22:55;;;;;;;3.33;1.60;;;;;;;;;;5128067;28;20048;-71
2022/07/18 05:25:25;;;;;;;2.55;1.77;;;;;;;;;;5127589;28;20047;-71
2022/07/18 05:27:55;;;;;;;2.25;1.17;;;;;;;;;;5127041;28;20058;-71
2022/07/18 05:30:26;;;;;;;3.83;1.70;;;;;;;;;;5126944;27;20043;-71
2022/07/18 05:32:56;;;;;;;1.88;1.35;;;;;;;;;;5130214;27;20536;-71
2022/07/18 05:35:26;;;;;;;2.78;1.27;;;;;;;;;;5131187;27;20054;-71
2022/07/18 05:37:56;;;;;;;2.50;1.38;;;;;;;;;;5131178;27;20035;-71
2022/07/18 05:40:26;;;;;;;4.20;1.60;;;;;;;;;;5130919;27;20051;-71
2022/07/18 05:42:55;;;;;;;5.38;1.60;;;;;;;;;;5129524;27;20540;-71
2022/07/18 05:45:25;;;;;;;2.80;1.45;;;;;;;;;;5130615;27;20418;-71
2022/07/18 05:47:55;;;;;;;;;;;;;;;;;;5113376;27;20541;-70
2022/07/18 05:50:25;;;;;;;4.40;1.50;;;;;;;;;;5128861;27;19923;-71
2022/07/18 05:52:54;;;;;;;;;;;;;;;;;;5130950;27;20062;-71
2022/07/18 05:55:24;;;;;;;2.88;1.42;;;;;;;;;;5130743;27;19926;-71
2022/07/18 05:57:54;;;;;;;2.03;1.45;;;;;;;;;;5130721;27;20051;-71
2022/07/18 06:00:24;;;;;;;2.15;1.02;;;;;;;;;;5130703;27;20051;-71
2022/07/18 06:02:53;;;;;;;2.47;1.40;;;;;;;;;;5130178;27;20043;-71
2022/07/18 06:05:23;;;;;;;5.53;1.27;;;;;;;;;;5130803;27;20069;-71
2022/07/18 06:07:56;;;;;;;3.03;1.40;;;;;;;;;;5131032;27;20047;-71
2022/07/18 06:10:27;;;;;;;2.55;1.65;;;;;;;;;;5130863;27;20494;-71
2022/07/18 06:12:57;;;;;;;1.88;1.35;;;;;;;;;;5130059;27;20787;-71
2022/07/18 06:15:26;;;;;;;2.33;1.25;;;;;;;;;;5129688;27;20054;-71
2022/07/18 06:17:57;;;;;;;2.38;1.60;;;;;;;;;;5128650;27;20051;-71
2022/07/18 06:20:28;;;;;;;2.45;1.58;;;;;;;;;;5129789;27;20047;-71
2022/07/18 06:22:57;;;;;;;1.52;1.00;;;;;;;;;;5130080;27;20051;-71
2022/07/18 06:25:27;;;;;;;1.88;1.15;;;;;;;;;;5129846;27;20504;-71
2022/07/18 06:27:57;;;;;;;2.72;1.13;;;;;;;;;;5129827;27;20521;-71
2022/07/18 06:30:27;;;;;;;1.95;1.40;;;;;;;;;;5130463;27;20051;-71
2022/07/18 06:32:57;;;;;;;2.00;1.10;;;;;;;;;;5128693;27;20427;-71
2022/07/18 06:35:27;;;;;;;2.00;1.30;;;;;;;;;;5129623;27;20043;-71
2022/07/18 06:37:58;;;;;;;1.50;1.02;;;;;;;;;;5130036;27;20051;-71
2022/07/18 06:40:27;;;;;;;1.42;1.10;;;;;;;;;;5129432;27;20051;-71
2022/07/18 06:42:57;;;;;;;2.22;1.20;;;;;;;;;;5129387;27;20410;-71
2022/07/18 06:45:27;;;;;;;1.77;1.13;;;;;;;;;;5128957;27;20392;-71
2022/07/18 06:47:57;;;;;;;1.85;1.00;;;;;;;;;;5129365;27;20062;-71
2022/07/18 06:50:27;;;;;;;1.70;1.20;;;;;;;;;;5127910;27;20047;-71
2022/07/18 06:52:56;;;;;;;2.33;1.45;;;;;;;;;;5129787;27;20050;-71
2022/07/18 06:55:26;;;;;;;1.55;1.02;;;;;;;;;;5129305;27;20410;-71
2022/07/18 06:57:56;;;;;;;2.10;1.10;;;;;;;;;;5130284;27;20039;-71
2022/07/18 07:00:26;;;;;;;1.48;1.00;;;;;;;;;;5129110;27;20046;-71
2022/07/18 07:02:56;;;;;;;3.50;1.55;;;;;;;;;;5128110;27;20051;-70
2022/07/18 07:05:26;;;;;;;2.42;1.52;;;;;;;;;;5129200;27;20062;-71
2022/07/18 07:07:55;;;;;;;2.50;1.33;;;;;;;;;;5128907;27;20047;-71
2022/07/18 07:10:26;;;;;;;1.83;1.17;;;;;;;;;;5129044;27;20050;-71
2022/07/18 07:12:55;;;;;;;;;;;;;;;;;;5129253;27;20125;-71
2022/07/18 07:15:25;;;;;;;2.10;1.30;;;;;;;;;;5128843;27;19924;-71
2022/07/18 07:17:56;;;;;;;3.65;1.15;;;;;;;;;;5128831;27;20528;-71
2022/07/18 07:20:26;;;;;;;2.40;1.65;;;;;;;;;;5129074;27;20054;-71
2022/07/18 07:23:01;;;;;;;3.05;1.08;;;;;;;;;;5128917;27;20039;-71
2022/07/18 07:25:31;;;;;;;2.25;1.42;;;;;;;;;;5128781;27;20050;-71
2022/07/18 07:28:01;;;;;;;;;;;;;;;;;;5129978;27;20379;-71
2022/07/18 07:30:31;;;;;;;3.97;1.70;;;;;;;;;;5128704;27;19923;-71
2022/07/18 07:33:03;;;;;;;2.15;1.30;;;;;;;;;;5128761;27;20679;-71
2022/07/18 07:35:33;;;;;;;2.17;1.50;;;;;;;;;;5127822;27;20054;-71
2022/07/18 07:38:03;;;;;;;;;;;;;;;;;;5129340;27;20047;-71
2022/07/18 07:40:33;;;;;;;1.70;0.98;;;;;;;;;;5128883;27;19923;-71
2022/07/18 07:43:08;;;;;;;2.20;1.33;;;;;;;;;;5128407;27;20047;-71
2022/07/18 07:45:40;;;;;;;3.03;1.25;;;;;;;;;;5126604;27;20062;-71
2022/07/18 07:48:10;;;;;;;2.20;1.17;;;;;;;;;;5128094;27;20046;-72
2022/07/18 07:50:41;;;;;;;9.52;1.70;;;;;;;;;;5128166;27;20043;-71
2022/07/18 07:53:14;;;;;;;25.33;2.03;;;;;;;;;;5127579;27;20050;-71
2022/07/18 07:55:48;;;;;;;38.45;1.75;;;;;;;;;;5127880;27;20051;-71
2022/07/18 07:58:18;;;;;;;13.77;2.50;;;;;;;;;;5128274;27;20043;-71
2022/07/18 08:00:49;;;;;;;16.10;1.50;;;;;;;;;;5127948;27;20047;-71
2022/07/18 08:03:19;;;;;;;32.45;2.00;;;;;;;;;;5127731;27;20055;-71
2022/07/18 08:05:50;;;;;;;20.50;2.65;;;;;;;;;;5127942;27;20047;-71
2022/07/18 08:08:21;;;;;;;36.35;1.70;;;;;;;;;;5127981;27;20379;-71
2022/07/18 08:10:53;;;;;;;47.92;2.45;;;;;;;;;;5128387;27;20043;-71
2022/07/18 08:13:24;;;;;;;47.40;2.40;;;;;;;;;;5110564;27;20524;-71
2022/07/18 08:15:54;;;;;;;28.63;3.88;;;;;;;;;;5127809;27;20043;-71
2022/07/18 08:18:24;;;;;;;14.38;1.52;;;;;;;;;;5127535;27;20053;-70
2022/07/18 08:20:54;;;;;;;35.22;2.80;;;;;;;;;;5128126;27;20482;-70
2022/07/18 08:23:24;;;;;;;;;;;;;;;;;;5128693;27;20062;-71
2022/07/18 08:25:54;;;;;;;32.53;1.75;;;;;;;;;;5127394;27;19926;-70
2022/07/18 08:28:24;;;;;;;;;;;;;;;;;;5128472;27;20049;-70
2022/07/18 08:30:54;;;;;;;82.45;2.78;;;;;;;;;;5127326;27;20302;-70
2022/07/18 08:33:24;;;;;;;78.53;3.28;;;;;;;;;;5127785;27;20039;-71
2022/07/18 08:39:57;;;;;;;53.08;3.25;;;;;;;;;;5128198;27;20118;-70
2022/07/18 08:43:09;;;;;;;35.35;2.53;;;;;;;;;;5127691;28;20406;-71
2022/07/18 08:46:47;;;;;;;39.67;3.25;;;;;;;;;;5127745;28;20407;-70
2022/07/18 08:49:18;;;;;;;17.40;1.85;;;;;;;;;;5126334;28;20502;-71
2022/07/18 08:51:48;;;;;;;14.27;1.52;;;;;;;;;;5127474;28;20051;-71
2022/07/18 08:54:18;;;;;;;17.40;2.28;;;;;;;;;;5127404;28;20051;-71
2022/07/18 08:56:51;;;;;;;55.85;2.20;;;;;;;;;;5127634;28;20043;-71
2022/07/18 08:59:21;;;;;;;39.38;2.10;;;;;;;;;;5127885;28;20054;-70
2022/07/18 09:01:51;;;;;;;34.03;1.73;;;;;;;;;;5127449;28;20069;-71
2022/07/18 09:04:44;;;;;;;6.88;1.20;;;;;;;;;;5127293;28;20066;-71
2022/07/18 09:07:35;;;;;;;8.68;1.52;;;;;;;;;;5128597;27;20055;-71
2022/07/18 09:10:07;;;;;;;13.20;1.75;;;;;;;;;;5130509;27;20047;-71
2022/07/18 09:12:38;;;;;;;5.90;1.42;;;;;;;;;;5131540;27;20039;-71
2022/07/18 09:15:14;;;;;;;15.45;1.60;;;;;;;;;;5132555;27;20062;-71
2022/07/18 09:17:45;;;;;;;6.82;1.20;;;;;;;;;;5131431;27;21143;-71
2022/07/18 09:20:16;;;;;;;1.92;1.40;;;;;;;;;;5131613;27;20043;-71
2022/07/18 09:22:49;;;;;;;;;;;;;;;;;;5131356;27;20043;-71
2022/07/18 09:25:24;;;;;;;1.30;0.95;;;;;;;;;;5131209;27;19919;-71
2022/07/18 09:27:55;;;;;;;1.98;1.10;;;;;;;;;;5129319;27;20051;-71
2022/07/18 09:30:35;;;;;;;1.60;1.23;;;;;;;;;;5130932;27;20425;-71
2022/07/18 09:33:10;;;;;;;2.22;1.17;;;;;;;;;;5131113;27;20043;-71
2022/07/18 09:35:45;;;;;;;2.15;1.20;;;;;;;;;;5130653;27;20046;-72
2022/07/18 09:38:17;;;;;;;2.75;1.85;;;;;;;;;;5130881;27;20184;-71
2022/07/18 09:40:52;;;;;;;1.23;1.10;;;;;;;;;;5130993;27;20042;-71
2022/07/18 09:43:26;;;;;;;1.45;1.13;;;;;;;;;;5130900;27;20067;-71
2022/07/18 09:45:57;;;;;;;1.55;1.10;;;;;;;;;;5130287;27;20414;-79
2022/07/18 09:48:29;;;;;;;55.55;1.80;;;;;;;;;;5130954;27;20498;-71
2022/07/18 09:51:05;;;;;;;18.55;1.30;;;;;;;;;;5130670;27;20402;-71
2022/07/18 09:53:37;;;;;;;17.45;1.55;;;;;;;;;;5130460;27;20035;-72
2022/07/18 09:56:11;;;;;;;4.75;1.00;;;;;;;;;;5130868;27;20576;-70
2022/07/18 09:58:50;;;;;;;3.67;1.10;;;;;;;;;;5129064;27;20047;-71
2022/07/18 10:01:22;;;;;;;2.80;1.45;;;;;;;;;;5130262;27;20058;-71
2022/07/18 10:03:53;;;;;;;4.00;2.50;;;;;;;;;;5130342;27;20043;-71
2022/07/18 10:06:23;;;;;;;9.77;2.65;;;;;;;;;;5130735;27;20039;-74
2022/07/18 10:08:55;;;;;;;;;;;;;;;;;;5130937;27;20054;-71
2022/07/18 10:11:25;;;;;;;11.55;1.30;;;;;;;;;;5130173;27;19919;-71
2022/07/18 10:13:55;;;;;;;11.23;1.10;;;;;;;;;;5130296;27;20054;-71
2022/07/18 10:16:25;;;;;;;12.32;1.23;;;;;;;;;;5130040;27;20058;-71
2022/07/18 10:18:55;;;;;;;8.93;1.02;;;;;;;;;;5128474;27;20051;-72
2022/07/18 10:21:29;;;;;;;5.15;1.08;;;;;;;;;;5129768;27;20054;-71
2022/07/18 10:24:02;;;;;;;8.45;1.50;;;;;;;;;;5129752;27;20043;-71
2022/07/18 10:26:32;;;;;;;16.20;1.65;;;;;;;;;;5129735;27;20051;-71
2022/07/18 10:29:01;;;;;;;50.83;2.67;;;;;;;;;;5130117;27;20050;-71
2022/07/18 10:31:41;;;;;;;117.28;3.63;;;;;;;;;;5130214;27;20043;-71
2022/07/18 10:34:12;;;;;;;72.15;4.22;;;;;;;;;;5129989;27;20043;-71
2022/07/18 10:36:51;;;;;;;67.40;3.72;;;;;;;;;;5127985;27;20058;-72
2022/07/18 10:39:46;;;;;;;82.40;3.20;;;;;;;;;;5128833;27;20051;-71
2022/07/18 10:42:19;;;;;;;80.47;4.38;;;;;;;;;;5129650;27;20031;-71
2022/07/18 10:44:49;;;;;;;122.05;4.97;;;;;;;;;;5129444;27;20078;-71
2022/07/18 10:47:23;;;;;;;128.50;4.50;;;;;;;;;;5129856;27;20501;-71
2022/07/18 10:49:54;;;;;;;77.65;5.18;;;;;;;;;;5129471;27;20043;-71
2022/07/18 10:55:03;;;;;;;110.32;4.95;;;;;;;;;;5129923;27;20047;-71
2022/07/18 10:57:42;;;;;;;106.20;3.53;;;;;;;;;;5129395;27;20057;-72
2022/07/18 11:00:16;;;;;;;46.90;2.42;;;;;;;;;;5128830;27;20047;-71
2022/07/18 11:03:02;;;;;;;94.45;4.40;;;;;;;;;;5128167;27;20514;-71
2022/07/18 11:05:34;;;;;;;40.97;2.40;;;;;;;;;;5128983;27;20042;-71
2022/07/18 11:08:04;;;;;;;27.70;3.22;;;;;;;;;;5129183;27;20050;-71
2022/07/18 11:13:22;;;;;;;41.28;2.17;;;;;;;;;;5128796;27;20070;-71
2022/07/18 11:15:58;;;;;;;7.45;1.50;;;;;;;;;;5128526;27;20051;-71
2022/07/18 11:18:51;;;;;;;31.92;1.90;;;;;;;;;;5129030;27;20050;-71
2022/07/18 11:21:25;;;;;;;32.08;1.98;;;;;;;;;;5129008;27;20050;-69
2022/07/18 11:24:08;;;;;;;33.25;2.55;;;;;;;;;;5129396;27;20047;-74
2022/07/18 11:26:47;;;;;;;18.48;1.60;;;;;;;;;;5128694;27;20662;-71
2022/07/18 11:29:20;;;;;;;16.30;1.98;;;;;;;;;;5127156;27;20039;-70
2022/07/18 11:31:55;;;;;;;5.55;1.40;;;;;;;;;;5127955;27;20050;-72
2022/07/18 11:34:26;;;;;;;5.65;1.77;;;;;;;;;;5128994;27;20510;-71
2022/07/18 11:37:13;;;;;;;12.15;1.85;;;;;;;;;;5128327;27;20073;-70
2022/07/18 11:39:43;;;;;;;1.90;1.45;;;;;;;;;;5128546;27;20047;-74
2022/07/18 11:42:15;;;;;;;3.47;1.40;;;;;;;;;;5128229;27;20486;-71
2022/07/18 11:44:57;;;;;;;14.13;2.67;;;;;;;;;;5128172;27;20063;-72
2022/07/18 11:47:27;;;;;;;4.28;1.67;;;;;;;;;;5126769;27;20043;-71
2022/07/18 11:49:57;;;;;;;5.25;1.30;;;;;;;;;;5128444;27;20478;-71
2022/07/18 11:52:27;;;;;;;7.10;1.70;;;;;;;;;;5128677;27;20046;-73
2022/07/18 11:55:01;;;;;;;19.02;2.17;;;;;;;;;;5127895;27;20043;-71
2022/07/18 11:57:32;;;;;;;30.80;2.47;;;;;;;;;;5127834;27;20513;-71
2022/07/18 12:00:17;;;;;;;35.92;2.75;;;;;;;;;;5128132;27;20405;-72
2022/07/18 12:03:12;;;;;;;55.88;3.15;;;;;;;;;;5127940;27;20066;-70
2022/07/18 12:05:48;;;;;;;23.30;2.30;;;;;;;;;;5127558;27;20058;-71
2022/07/18 12:08:36;;;;;;;33.88;2.40;;;;;;;;;;5128100;27;20039;-70
2022/07/18 12:11:14;;;;;;;20.50;2.15;;;;;;;;;;5127604;27;20047;-71
2022/07/18 12:13:49;;;;;;;111.25;3.60;;;;;;;;;;5127943;27;20058;-71
2022/07/18 12:16:25;;;;;;;12.70;1.90;;;;;;;;;;5128847;27;20043;-71
2022/07/18 12:18:58;;;;;;;18.33;2.53;;;;;;;;;;5127892;27;20042;-71
2022/07/18 12:21:51;;;;;;;44.72;3.30;;;;;;;;;;5127480;27;20042;-71
2022/07/18 12:24:40;;;;;;;17.67;1.73;;;;;;;;;;5127984;27;20506;-71
2022/07/18 12:27:33;;;;;;;7.05;1.95;;;;;;;;;;5127337;27;20047;-76
2022/07/18 12:30:13;;;;;;;82.53;3.10;;;;;;;;;;5121880;27;20051;-73
2022/07/18 12:32:55;;;;;;;18.00;2.13;;;;;;;;;;5127596;27;20039;-71
2022/07/18 12:35:31;;;;;;;12.32;2.63;;;;;;;;;;5127149;27;20054;-72
2022/07/18 12:38:07;;;;;;;11.02;1.70;;;;;;;;;;5125996;28;20434;-70
2022/07/18 12:40:51;;;;;;;4.78;1.95;;;;;;;;;;5129546;27;20050;-71
2022/07/18 12:43:41;;;;;;;10.45;2.00;;;;;;;;;;5135359;27;20062;-72
2022/07/18 12:46:11;;;;;;;;;;;;;;;;;;5135020;27;20051;-71
2022/07/18 12:48:42;;;;;;;7.53;1.90;;;;;;;;;;5134190;27;20356;-72
2022/07/18 12:51:12;;;;;;;10.68;1.90;;;;;;;;;;5134306;27;20619;-71
2022/07/18 12:53:43;;;;;;;4.32;1.90;;;;;;;;;;5134407;27;20506;-74
2022/07/18 12:56:13;;;;;;;7.70;1.85;;;;;;;;;;5133748;27;20405;-71
2022/07/18 12:58:43;;;;;;;2.92;1.40;;;;;;;;;;5134566;27;20043;-72
2022/07/18 13:01:13;;;;;;;4.90;1.50;;;;;;;;;;5134858;27;20525;-71
2022/07/18 13:03:43;;;;;;;1.63;1.42;;;;;;;;;;5134085;27;20043;-71
2022/07/18 13:06:13;;;;;;;1.42;1.30;;;;;;;;;;5132724;27;20050;-70
2022/07/18 13:08:49;;;;;;;;;;;;;;;;;;5134333;27;20058;-72
2022/07/18 13:11:19;;;;;;;6.05;1.60;;;;;;;;;;5134816;27;20480;-70
2022/07/18 13:13:53;;;;;;;6.63;1.40;;;;;;;;;;5133943;27;20035;-74
2022/07/18 13:16:23;;;;;;;1.80;1.50;;;;;;;;;;5133715;27;20058;-71
2022/07/18 13:18:54;;;;;;;1.85;1.33;;;;;;;;;;5134178;27;20047;-72
2022/07/18 13:21:25;;;;;;;3.80;1.55;;;;;;;;;;5133878;27;20043;-71
2022/07/18 13:23:54;;;;;;;2.55;1.75;;;;;;;;;;5134094;27;20046;-72
2022/07/18 13:26:24;;;;;;;;;;;;;;;;;;5133477;27;20512;-70
2022/07/18 13:28:54;;;;;;;2.58;1.73;;;;;;;;;;5133792;27;19938;-71
2022/07/18 13:31:30;;;;;;;1.77;1.42;;;;;;;;;;5133983;27;20054;-72
2022/07/18 13:34:00;;;;;;;2.92;1.80;;;;;;;;;;5134434;27;20421;-69
2022/07/18 13:36:32;;;;;;;3.25;1.50;;;;;;;;;;5134064;27;20046;-71
2022/07/18 13:39:02;;;;;;;1.77;1.52;;;;;;;;;;5133961;27;20058;-73
2022/07/18 13:41:33;;;;;;;4.20;1.45;;;;;;;;;;5134062;27;20039;-72
2022/07/18 13:44:03;;;;;;;3.60;1.58;;;;;;;;;;5133430;27;20058;-73
2022/07/18 13:46:33;;;;;;;4.05;1.55;;;;;;;;;;5133593;27;20498;-73
2022/07/18 13:49:03;;;;;;;5.15;2.13;;;;;;;;;;5133791;27;20043;-73
2022/07/18 13:51:36;;;;;;;7.25;2.50;;;;;;;;;;5133408;27;20043;-73
2022/07/18 13:54:06;;;;;;;8.32;2.20;;;;;;;;;;5128737;27;20046;-70
2022/07/18 13:56:36;;;;;;;1.73;1.63;;;;;;;;;;5130293;27;20047;-75
2022/07/18 13:59:06;;;;;;;4.32;1.73;;;;;;;;;;5131089;27;20391;-72
2022/07/18 14:01:36;;;;;;;2.80;1.70;;;;;;;;;;5129866;27;20088;-72
2022/07/18 14:04:07;;;;;;;3.75;1.80;;;;;;;;;;5130761;27;20055;-72
2022/07/18 14:06:37;;;;;;;3.10;1.90;;;;;;;;;;5129111;27;20054;-73
2022/07/18 14:09:06;;;;;;;2.95;1.70;;;;;;;;;;5129174;27;20492;-75
2022/07/18 14:11:38;;;;;;;5.45;2.20;;;;;;;;;;5130418;27;20062;-73
2022/07/18 14:14:08;;;;;;;2.63;1.58;;;;;;;;;;5129980;27;20434;-71
2022/07/18 14:16:39;;;;;;;5.05;1.40;;;;;;;;;;5130331;27;20065;-72
2022/07/18 14:19:10;;;;;;;2.88;2.00;;;;;;;;;;5129899;27;20047;-71
2022/07/18 14:21:40;;;;;;;5.60;2.00;;;;;;;;;;5129471;27;20047;-72
2022/07/18 14:24:10;;;;;;;10.48;3.47;;;;;;;;;;5130212;27;20047;-74
2022/07/18 14:26:39;;;;;;;7.25;1.80;;;;;;;;;;5130070;27;20399;-72
2022/07/18 14:29:09;;;;;;;2.63;2.03;;;;;;;;;;5128631;27;20047;-71
2022/07/18 14:31:39;;;;;;;5.93;3.00;;;;;;;;;;5129675;27;20065;-72
2022/07/18 14:34:09;;;;;;;5.60;2.00;;;;;;;;;;5128499;27;20051;-71
2022/07/18 14:36:38;;;;;;;4.47;2.20;;;;;;;;;;5129761;27;20047;-72
2022/07/18 14:39:08;;;;;;;3.13;2.00;;;;;;;;;;5129336;27;20038;-72
2022/07/18 14:41:38;;;;;;;5.78;2.20;;;;;;;;;;5129787;27;20047;-72
2022/07/18 14:44:08;;;;;;;2.22;1.80;;;;;;;;;;5129596;27;20047;-71
2022/07/18 14:46:38;;;;;;;4.28;3.17;;;;;;;;;;5129023;27;20047;-77
2022/07/18 14:49:08;;;;;;;9.95;5.43;;;;;;;;;;5129624;27;20440;-71
2022/07/18 14:51:38;;;;;;;3.70;1.73;;;;;;;;;;5129874;27;20043;-72
2022/07/18 14:54:09;;;;;;;4.28;1.75;;;;;;;;;;5128716;27;20047;-72
2022/07/18 14:56:40;;;;;;;2.95;1.75;;;;;;;;;;5129433;27;20047;-77
2022/07/18 14:59:09;;;;;;;5.22;2.30;;;;;;;;;;5129048;27;20051;-72
2022/07/18 15:01:39;;;;;;;3.10;1.70;;;;;;;;;;5129382;27;20050;-71
2022/07/18 15:04:09;;;;;;;3.47;1.42;;;;;;;;;;5126584;27;20426;-72
2022/07/18 15:06:46;;;;;;;25.85;23.23;;;;;;;;;;5129227;27;20055;-72
2022/07/18 15:09:16;;;;;;;6.15;1.70;;;;;;;;;;5128889;27;20047;-72
2022/07/18 15:11:46;;;;;;;2.35;1.75;;;;;;;;;;5129344;27;20054;-72
2022/07/18 15:14:15;;;;;;;2.35;1.90;;;;;;;;;;5129037;27;20061;-71
2022/07/18 15:16:45;;;;;;;7.22;2.95;;;;;;;;;;5129209;27;20046;-71
2022/07/18 15:19:15;;;;;;;4.60;2.38;;;;;;;;;;5127667;27;20493;-79
2022/07/18 15:21:45;;;;;;;3.17;2.10;;;;;;;;;;5128980;27;20047;-72
2022/07/18 15:24:15;;;;;;;3.58;2.42;;;;;;;;;;5128679;27;20047;-70
2022/07/18 15:26:45;;;;;;;5.20;1.95;;;;;;;;;;5128516;27;20054;-72